Pays
Station

 

Conditions  météo  pour  Rijeka/Omisalj  -  Croatie    Croatie

  
26 °C
    
 
 

METAR pour Rijeka/Omisalj :

LDRI 162000Z 07008KT 020V110 CAVOK 26/14 Q1014

 

Voici le bulletin pour Rijeka/Omisalj - Croatie.
 
Le bulletin a été fait il y a un moment, à 20:00 UTC .
Le vent soufflait à la vitesse de 4.1 mètres par seconde de Est/Nord-est (070°), variant entre Nord/Nord-est (020°) et Est/Sud-est (110°).
 
La température était de 26 °C, avec un point de rosée à 14 °C.
La température ressentie était de 27 °C.
 
La pression atmosphérique était de 1014 hPa.
L'humidité relative était de 47.6%.
 
Il y avait pas de nuages en-dessous de 1500 mètres et pas de cumulonimbus.
 
La visibilité globale était de supérieure à 10 kilomètres.
 

 
 
 

Pays :   A   B   C   D   E   F   G   H   I   J   K   L   M   N   O   P   Q   R   S   T   U   V   W   Y   Z

 

Partenaires :  Info Météo avec Met'info
Météo Marine avec MeteoMarine.net
Infos Site  |  Infos Légales  |  Crédits  |  Confidentialité
Contactez-nous  |  Ajouter aux favoris
© 2013-2018 METAR - Tous droits réservés